sensor_id;sensor_type;location;lat;lon;timestamp;temperature;humidity
74416;SHT31;62850;42.428;25.618;2023-12-04T00:02:24;6.25;80.38
74416;SHT31;62850;42.428;25.618;2023-12-04T00:04:50;6.25;78.87
74416;SHT31;62850;42.428;25.618;2023-12-04T00:07:16;6.28;80.25
74416;SHT31;62850;42.428;25.618;2023-12-04T00:09:41;6.26;81.00
74416;SHT31;62850;42.428;25.618;2023-12-04T00:12:07;6.21;81.75
74416;SHT31;62850;42.428;25.618;2023-12-04T00:14:32;6.16;82.06
74416;SHT31;62850;42.428;25.618;2023-12-04T00:16:58;6.25;81.64
74416;SHT31;62850;42.428;25.618;2023-12-04T00:19:23;6.22;80.55
74416;SHT31;62850;42.428;25.618;2023-12-04T00:21:49;6.18;78.58
74416;SHT31;62850;42.428;25.618;2023-12-04T00:24:14;6.11;80.17
74416;SHT31;62850;42.428;25.618;2023-12-04T00:26:40;5.79;78.20
74416;SHT31;62850;42.428;25.618;2023-12-04T00:29:06;5.54;79.55
74416;SHT31;62850;42.428;25.618;2023-12-04T00:31:31;5.33;79.27
74416;SHT31;62850;42.428;25.618;2023-12-04T00:33:57;5.32;80.39
74416;SHT31;62850;42.428;25.618;2023-12-04T00:36:22;5.39;80.41
74416;SHT31;62850;42.428;25.618;2023-12-04T00:38:48;5.32;80.08
74416;SHT31;62850;42.428;25.618;2023-12-04T00:41:13;5.19;79.97
74416;SHT31;62850;42.428;25.618;2023-12-04T00:43:39;5.03;79.78
74416;SHT31;62850;42.428;25.618;2023-12-04T00:46:04;5.06;80.71
74416;SHT31;62850;42.428;25.618;2023-12-04T00:48:30;4.96;80.49
74416;SHT31;62850;42.428;25.618;2023-12-04T00:50:57;4.96;80.47
74416;SHT31;62850;42.428;25.618;2023-12-04T00:53:22;5.06;81.26
74416;SHT31;62850;42.428;25.618;2023-12-04T00:55:48;5.18;81.43
74416;SHT31;62850;42.428;25.618;2023-12-04T00:58:13;5.27;79.59
74416;SHT31;62850;42.428;25.618;2023-12-04T01:00:39;5.23;79.73
74416;SHT31;62850;42.428;25.618;2023-12-04T01:03:04;5.15;80.55
74416;SHT31;62850;42.428;25.618;2023-12-04T01:05:30;5.22;79.36
74416;SHT31;62850;42.428;25.618;2023-12-04T01:07:55;5.13;79.30
74416;SHT31;62850;42.428;25.618;2023-12-04T01:10:21;5.09;80.11
74416;SHT31;62850;42.428;25.618;2023-12-04T01:12:46;5.08;80.03
74416;SHT31;62850;42.428;25.618;2023-12-04T01:15:12;5.13;80.11
74416;SHT31;62850;42.428;25.618;2023-12-04T01:17:37;5.23;79.67
74416;SHT31;62850;42.428;25.618;2023-12-04T01:20:03;5.16;80.32
74416;SHT31;62850;42.428;25.618;2023-12-04T01:22:30;5.19;80.47
74416;SHT31;62850;42.428;25.618;2023-12-04T01:24:55;5.26;81.13
74416;SHT31;62850;42.428;25.618;2023-12-04T01:27:20;5.36;81.31
74416;SHT31;62850;42.428;25.618;2023-12-04T01:29:46;5.27;80.83
74416;SHT31;62850;42.428;25.618;2023-12-04T01:32:11;5.29;80.41
74416;SHT31;62850;42.428;25.618;2023-12-04T01:34:37;5.19;79.28
74416;SHT31;62850;42.428;25.618;2023-12-04T01:37:02;5.10;80.42
74416;SHT31;62850;42.428;25.618;2023-12-04T01:39:28;5.06;80.16
74416;SHT31;62850;42.428;25.618;2023-12-04T01:41:53;5.02;79.95
74416;SHT31;62850;42.428;25.618;2023-12-04T01:44:19;5.15;79.33
74416;SHT31;62850;42.428;25.618;2023-12-04T01:46:44;5.02;80.05
74416;SHT31;62850;42.428;25.618;2023-12-04T01:49:10;4.81;80.71
74416;SHT31;62850;42.428;25.618;2023-12-04T01:51:36;4.81;81.03
74416;SHT31;62850;42.428;25.618;2023-12-04T01:54:03;4.82;80.37
74416;SHT31;62850;42.428;25.618;2023-12-04T01:56:30;4.64;79.62
74416;SHT31;62850;42.428;25.618;2023-12-04T01:58:56;4.52;80.86
74416;SHT31;62850;42.428;25.618;2023-12-04T02:01:22;4.37;81.81
74416;SHT31;62850;42.428;25.618;2023-12-04T02:03:48;4.30;81.76
74416;SHT31;62850;42.428;25.618;2023-12-04T02:06:16;4.34;81.90
74416;SHT31;62850;42.428;25.618;2023-12-04T02:08:42;4.38;82.66
74416;SHT31;62850;42.428;25.618;2023-12-04T02:11:08;4.44;83.07
74416;SHT31;62850;42.428;25.618;2023-12-04T02:13:34;4.43;82.88
74416;SHT31;62850;42.428;25.618;2023-12-04T02:16:03;4.24;83.48
74416;SHT31;62850;42.428;25.618;2023-12-04T02:18:32;4.31;83.82
74416;SHT31;62850;42.428;25.618;2023-12-04T02:20:58;4.02;83.59
74416;SHT31;62850;42.428;25.618;2023-12-04T02:23:23;4.02;84.17
74416;SHT31;62850;42.428;25.618;2023-12-04T02:25:49;4.06;84.44
74416;SHT31;62850;42.428;25.618;2023-12-04T02:28:16;4.09;84.78
74416;SHT31;62850;42.428;25.618;2023-12-04T02:30:43;4.00;84.31
74416;SHT31;62850;42.428;25.618;2023-12-04T02:33:11;4.09;85.12
74416;SHT31;62850;42.428;25.618;2023-12-04T02:35:37;4.03;84.04
74416;SHT31;62850;42.428;25.618;2023-12-04T02:38:05;4.03;84.09
74416;SHT31;62850;42.428;25.618;2023-12-04T02:40:31;4.18;84.76
74416;SHT31;62850;42.428;25.618;2023-12-04T02:42:56;4.30;84.52
74416;SHT31;62850;42.428;25.618;2023-12-04T02:45:23;4.34;83.67
74416;SHT31;62850;42.428;25.618;2023-12-04T02:47:48;4.27;81.93
74416;SHT31;62850;42.428;25.618;2023-12-04T02:50:14;4.29;82.09
74416;SHT31;62850;42.428;25.618;2023-12-04T02:52:39;4.14;81.92
74416;SHT31;62850;42.428;25.618;2023-12-04T02:55:05;4.06;83.14
74416;SHT31;62850;42.428;25.618;2023-12-04T02:57:30;4.03;83.31
74416;SHT31;62850;42.428;25.618;2023-12-04T02:59:56;4.02;82.94
74416;SHT31;62850;42.428;25.618;2023-12-04T03:02:21;4.17;83.22
74416;SHT31;62850;42.428;25.618;2023-12-04T03:04:47;4.07;82.24
74416;SHT31;62850;42.428;25.618;2023-12-04T03:07:12;4.07;82.20
74416;SHT31;62850;42.428;25.618;2023-12-04T03:09:38;4.13;82.39
74416;SHT31;62850;42.428;25.618;2023-12-04T03:12:04;4.16;81.90
74416;SHT31;62850;42.428;25.618;2023-12-04T03:14:29;4.13;80.56
74416;SHT31;62850;42.428;25.618;2023-12-04T03:16:55;4.11;80.63
74416;SHT31;62850;42.428;25.618;2023-12-04T03:19:20;3.97;80.98
74416;SHT31;62850;42.428;25.618;2023-12-04T03:21:46;3.93;81.24
74416;SHT31;62850;42.428;25.618;2023-12-04T03:24:11;4.02;80.58
74416;SHT31;62850;42.428;25.618;2023-12-04T03:26:37;3.97;81.21
74416;SHT31;62850;42.428;25.618;2023-12-04T03:29:02;4.14;81.65
74416;SHT31;62850;42.428;25.618;2023-12-04T03:31:28;4.18;81.08
74416;SHT31;62850;42.428;25.618;2023-12-04T03:33:54;4.23;80.68
74416;SHT31;62850;42.428;25.618;2023-12-04T03:36:19;4.21;80.70
74416;SHT31;62850;42.428;25.618;2023-12-04T03:38:45;4.29;80.93
74416;SHT31;62850;42.428;25.618;2023-12-04T03:41:16;4.43;81.27
74416;SHT31;62850;42.428;25.618;2023-12-04T03:43:42;4.52;81.52
74416;SHT31;62850;42.428;25.618;2023-12-04T03:46:08;4.62;82.38
74416;SHT31;62850;42.428;25.618;2023-12-04T03:48:34;4.68;82.00
74416;SHT31;62850;42.428;25.618;2023-12-04T03:50:59;4.73;81.40
74416;SHT31;62850;42.428;25.618;2023-12-04T03:53:26;4.75;81.26
74416;SHT31;62850;42.428;25.618;2023-12-04T03:55:51;4.78;81.17
74416;SHT31;62850;42.428;25.618;2023-12-04T03:58:17;4.86;80.94
74416;SHT31;62850;42.428;25.618;2023-12-04T04:00:43;4.83;79.45
74416;SHT31;62850;42.428;25.618;2023-12-04T04:03:09;4.92;79.67
74416;SHT31;62850;42.428;25.618;2023-12-04T04:05:35;4.92;79.86
74416;SHT31;62850;42.428;25.618;2023-12-04T04:08:00;4.86;79.11
74416;SHT31;62850;42.428;25.618;2023-12-04T04:10:26;4.79;77.70
74416;SHT31;62850;42.428;25.618;2023-12-04T04:12:51;4.89;77.42
74416;SHT31;62850;42.428;25.618;2023-12-04T04:15:17;4.57;76.78
74416;SHT31;62850;42.428;25.618;2023-12-04T04:17:42;4.60;77.52
74416;SHT31;62850;42.428;25.618;2023-12-04T04:20:08;4.68;79.17
74416;SHT31;62850;42.428;25.618;2023-12-04T04:22:34;4.58;78.45
74416;SHT31;62850;42.428;25.618;2023-12-04T04:25:06;4.62;78.44
74416;SHT31;62850;42.428;25.618;2023-12-04T04:27:32;4.76;78.33
74416;SHT31;62850;42.428;25.618;2023-12-04T04:29:58;4.67;77.18
74416;SHT31;62850;42.428;25.618;2023-12-04T04:32:24;4.78;78.30
74416;SHT31;62850;42.428;25.618;2023-12-04T04:34:49;4.82;79.60
74416;SHT31;62850;42.428;25.618;2023-12-04T04:37:15;4.86;79.53
74416;SHT31;62850;42.428;25.618;2023-12-04T04:39:40;4.79;78.73
74416;SHT31;62850;42.428;25.618;2023-12-04T04:42:06;4.91;78.82
74416;SHT31;62850;42.428;25.618;2023-12-04T04:44:31;4.91;78.81
74416;SHT31;62850;42.428;25.618;2023-12-04T04:46:57;4.79;78.11
74416;SHT31;62850;42.428;25.618;2023-12-04T04:49:22;4.67;76.88
74416;SHT31;62850;42.428;25.618;2023-12-04T04:51:48;4.51;74.68
74416;SHT31;62850;42.428;25.618;2023-12-04T04:54:13;4.61;74.00
74416;SHT31;62850;42.428;25.618;2023-12-04T04:56:39;4.65;75.58
74416;SHT31;62850;42.428;25.618;2023-12-04T04:59:04;4.68;76.78
74416;SHT31;62850;42.428;25.618;2023-12-04T05:01:30;4.76;76.63
74416;SHT31;62850;42.428;25.618;2023-12-04T05:03:55;4.85;77.86
74416;SHT31;62850;42.428;25.618;2023-12-04T05:06:21;4.93;78.39
74416;SHT31;62850;42.428;25.618;2023-12-04T05:08:48;4.92;78.33
74416;SHT31;62850;42.428;25.618;2023-12-04T05:11:16;4.91;78.78
74416;SHT31;62850;42.428;25.618;2023-12-04T05:13:42;4.61;76.77
74416;SHT31;62850;42.428;25.618;2023-12-04T05:16:08;4.65;77.04
74416;SHT31;62850;42.428;25.618;2023-12-04T05:18:33;4.68;75.96
74416;SHT31;62850;42.428;25.618;2023-12-04T05:20:59;4.75;76.55
74416;SHT31;62850;42.428;25.618;2023-12-04T05:23:24;4.81;76.45
74416;SHT31;62850;42.428;25.618;2023-12-04T05:25:50;4.83;76.33
74416;SHT31;62850;42.428;25.618;2023-12-04T05:28:15;4.82;76.29
74416;SHT31;62850;42.428;25.618;2023-12-04T05:30:41;4.86;77.72
74416;SHT31;62850;42.428;25.618;2023-12-04T05:33:06;4.93;77.45
74416;SHT31;62850;42.428;25.618;2023-12-04T05:35:32;4.96;77.72
74416;SHT31;62850;42.428;25.618;2023-12-04T05:37:59;5.03;78.13
74416;SHT31;62850;42.428;25.618;2023-12-04T05:40:25;5.10;78.44
74416;SHT31;62850;42.428;25.618;2023-12-04T05:42:50;5.16;78.95
74416;SHT31;62850;42.428;25.618;2023-12-04T05:45:16;5.19;79.54
74416;SHT31;62850;42.428;25.618;2023-12-04T05:47:42;5.22;80.46
74416;SHT31;62850;42.428;25.618;2023-12-04T05:50:07;5.22;81.23
74416;SHT31;62850;42.428;25.618;2023-12-04T05:52:33;5.22;81.82
74416;SHT31;62850;42.428;25.618;2023-12-04T05:54:59;5.22;81.69
74416;SHT31;62850;42.428;25.618;2023-12-04T05:57:24;5.23;81.78
74416;SHT31;62850;42.428;25.618;2023-12-04T05:59:49;5.19;81.52
74416;SHT31;62850;42.428;25.618;2023-12-04T06:02:15;5.16;81.35
74416;SHT31;62850;42.428;25.618;2023-12-04T06:04:41;5.18;81.37
74416;SHT31;62850;42.428;25.618;2023-12-04T06:07:06;5.08;81.74
74416;SHT31;62850;42.428;25.618;2023-12-04T06:09:32;5.06;81.83
74416;SHT31;62850;42.428;25.618;2023-12-04T06:11:58;5.00;82.45
74416;SHT31;62850;42.428;25.618;2023-12-04T06:14:23;4.92;81.85
74416;SHT31;62850;42.428;25.618;2023-12-04T06:16:49;4.92;82.07
74416;SHT31;62850;42.428;25.618;2023-12-04T06:19:14;4.89;81.10
74416;SHT31;62850;42.428;25.618;2023-12-04T06:21:40;4.99;81.64
74416;SHT31;62850;42.428;25.618;2023-12-04T06:24:05;5.08;81.67
74416;SHT31;62850;42.428;25.618;2023-12-04T06:26:35;5.13;82.07
74416;SHT31;62850;42.428;25.618;2023-12-04T06:29:01;5.12;82.18
74416;SHT31;62850;42.428;25.618;2023-12-04T06:31:27;5.19;81.30
74416;SHT31;62850;42.428;25.618;2023-12-04T06:33:53;5.23;81.34
74416;SHT31;62850;42.428;25.618;2023-12-04T06:36:18;5.27;82.08
74416;SHT31;62850;42.428;25.618;2023-12-04T06:38:46;5.37;82.74
74416;SHT31;62850;42.428;25.618;2023-12-04T06:41:13;5.46;82.05
74416;SHT31;62850;42.428;25.618;2023-12-04T06:43:39;5.47;82.82
74416;SHT31;62850;42.428;25.618;2023-12-04T06:46:05;5.41;81.43
74416;SHT31;62850;42.428;25.618;2023-12-04T06:48:31;5.36;81.43
74416;SHT31;62850;42.428;25.618;2023-12-04T06:50:57;5.40;80.72
74416;SHT31;62850;42.428;25.618;2023-12-04T06:53:23;5.41;81.30
74416;SHT31;62850;42.428;25.618;2023-12-04T06:55:48;5.47;81.27
74416;SHT31;62850;42.428;25.618;2023-12-04T06:58:14;5.54;81.33
74416;SHT31;62850;42.428;25.618;2023-12-04T07:00:39;5.50;81.75
74416;SHT31;62850;42.428;25.618;2023-12-04T07:03:05;5.47;81.23
74416;SHT31;62850;42.428;25.618;2023-12-04T07:05:31;5.54;81.01
74416;SHT31;62850;42.428;25.618;2023-12-04T07:07:56;5.55;80.63
74416;SHT31;62850;42.428;25.618;2023-12-04T07:10:22;5.48;78.53
74416;SHT31;62850;42.428;25.618;2023-12-04T07:12:47;5.46;76.45
74416;SHT31;62850;42.428;25.618;2023-12-04T07:15:13;5.47;76.36
74416;SHT31;62850;42.428;25.618;2023-12-04T07:17:39;5.51;76.97
74416;SHT31;62850;42.428;25.618;2023-12-04T07:20:05;5.48;76.83
74416;SHT31;62850;42.428;25.618;2023-12-04T07:22:32;5.48;77.14
74416;SHT31;62850;42.428;25.618;2023-12-04T07:24:58;5.51;77.91
74416;SHT31;62850;42.428;25.618;2023-12-04T07:27:23;5.53;78.46
74416;SHT31;62850;42.428;25.618;2023-12-04T07:29:49;5.58;78.00
74416;SHT31;62850;42.428;25.618;2023-12-04T07:32:14;5.43;75.16
74416;SHT31;62850;42.428;25.618;2023-12-04T07:34:40;5.32;73.11
74416;SHT31;62850;42.428;25.618;2023-12-04T07:37:05;5.36;73.76
74416;SHT31;62850;42.428;25.618;2023-12-04T07:39:31;5.32;70.53
74416;SHT31;62850;42.428;25.618;2023-12-04T07:41:56;5.43;70.35
74416;SHT31;62850;42.428;25.618;2023-12-04T07:44:21;5.51;70.66
74416;SHT31;62850;42.428;25.618;2023-12-04T07:46:47;5.29;71.84
74416;SHT31;62850;42.428;25.618;2023-12-04T07:49:12;5.32;71.40
74416;SHT31;62850;42.428;25.618;2023-12-04T07:51:38;5.43;71.80
74416;SHT31;62850;42.428;25.618;2023-12-04T07:54:04;5.39;72.59
74416;SHT31;62850;42.428;25.618;2023-12-04T07:56:29;5.24;70.17
74416;SHT31;62850;42.428;25.618;2023-12-04T07:58:57;5.39;70.38
74416;SHT31;62850;42.428;25.618;2023-12-04T08:01:23;5.27;69.75
74416;SHT31;62850;42.428;25.618;2023-12-04T08:03:49;5.34;70.05
74416;SHT31;62850;42.428;25.618;2023-12-04T08:06:15;5.39;70.15
74416;SHT31;62850;42.428;25.618;2023-12-04T08:08:43;5.37;69.69
74416;SHT31;62850;42.428;25.618;2023-12-04T08:11:09;5.44;70.73
74416;SHT31;62850;42.428;25.618;2023-12-04T08:13:35;5.47;70.50
74416;SHT31;62850;42.428;25.618;2023-12-04T08:16:01;5.54;70.43
74416;SHT31;62850;42.428;25.618;2023-12-04T08:18:26;5.60;71.61
74416;SHT31;62850;42.428;25.618;2023-12-04T08:20:52;5.53;67.92
74416;SHT31;62850;42.428;25.618;2023-12-04T08:23:17;5.48;68.05
74416;SHT31;62850;42.428;25.618;2023-12-04T08:25:43;5.40;68.39
74416;SHT31;62850;42.428;25.618;2023-12-04T08:28:09;5.37;68.19
74416;SHT31;62850;42.428;25.618;2023-12-04T08:30:35;5.43;68.74
74416;SHT31;62850;42.428;25.618;2023-12-04T08:33:00;5.36;68.07
74416;SHT31;62850;42.428;25.618;2023-12-04T08:35:26;5.29;67.34
74416;SHT31;62850;42.428;25.618;2023-12-04T08:37:51;5.33;68.26
74416;SHT31;62850;42.428;25.618;2023-12-04T08:40:17;5.33;69.82
74416;SHT31;62850;42.428;25.618;2023-12-04T08:42:43;5.51;69.36
74416;SHT31;62850;42.428;25.618;2023-12-04T08:45:09;5.61;70.59
74416;SHT31;62850;42.428;25.618;2023-12-04T08:47:34;5.72;71.71
74416;SHT31;62850;42.428;25.618;2023-12-04T08:50:00;5.79;72.71
74416;SHT31;62850;42.428;25.618;2023-12-04T08:52:26;5.87;73.12
74416;SHT31;62850;42.428;25.618;2023-12-04T08:54:51;5.94;72.74
74416;SHT31;62850;42.428;25.618;2023-12-04T08:57:17;6.08;73.31
74416;SHT31;62850;42.428;25.618;2023-12-04T08:59:42;6.23;73.53
74416;SHT31;62850;42.428;25.618;2023-12-04T09:02:07;6.19;73.22
74416;SHT31;62850;42.428;25.618;2023-12-04T09:04:33;6.13;73.12
74416;SHT31;62850;42.428;25.618;2023-12-04T09:06:59;6.08;72.52
74416;SHT31;62850;42.428;25.618;2023-12-04T09:09:24;6.18;71.92
74416;SHT31;62850;42.428;25.618;2023-12-04T09:11:50;6.26;72.68
74416;SHT31;62850;42.428;25.618;2023-12-04T09:14:15;6.37;72.32
74416;SHT31;62850;42.428;25.618;2023-12-04T09:16:41;6.32;72.52
74416;SHT31;62850;42.428;25.618;2023-12-04T09:19:07;6.40;72.20
74416;SHT31;62850;42.428;25.618;2023-12-04T09:21:32;6.37;72.41
74416;SHT31;62850;42.428;25.618;2023-12-04T09:23:59;6.51;71.57
74416;SHT31;62850;42.428;25.618;2023-12-04T09:26:24;6.54;71.53
74416;SHT31;62850;42.428;25.618;2023-12-04T09:28:50;6.51;70.46
74416;SHT31;62850;42.428;25.618;2023-12-04T09:31:15;6.56;71.18
74416;SHT31;62850;42.428;25.618;2023-12-04T09:33:41;6.54;70.93
74416;SHT31;62850;42.428;25.618;2023-12-04T09:36:07;6.63;71.13
74416;SHT31;62850;42.428;25.618;2023-12-04T09:38:34;6.60;71.06
74416;SHT31;62850;42.428;25.618;2023-12-04T09:41:01;6.50;70.49
74416;SHT31;62850;42.428;25.618;2023-12-04T09:43:31;6.49;69.86
74416;SHT31;62850;42.428;25.618;2023-12-04T09:45:57;6.25;70.05
74416;SHT31;62850;42.428;25.618;2023-12-04T09:48:25;6.30;70.28
74416;SHT31;62850;42.428;25.618;2023-12-04T09:50:52;6.46;70.21
74416;SHT31;62850;42.428;25.618;2023-12-04T09:53:17;6.51;70.66
74416;SHT31;62850;42.428;25.618;2023-12-04T09:55:44;6.46;70.48
74416;SHT31;62850;42.428;25.618;2023-12-04T09:58:13;6.43;71.08
74416;SHT31;62850;42.428;25.618;2023-12-04T10:00:41;6.32;72.09
74416;SHT31;62850;42.428;25.618;2023-12-04T10:03:08;6.36;71.94
74416;SHT31;62850;42.428;25.618;2023-12-04T10:05:33;6.47;71.72
74416;SHT31;62850;42.428;25.618;2023-12-04T10:07:59;6.42;71.49
74416;SHT31;62850;42.428;25.618;2023-12-04T10:10:24;6.42;70.94
74416;SHT31;62850;42.428;25.618;2023-12-04T10:12:50;6.37;71.77
74416;SHT31;62850;42.428;25.618;2023-12-04T10:15:16;6.36;71.28
74416;SHT31;62850;42.428;25.618;2023-12-04T10:17:42;6.40;70.46
74416;SHT31;62850;42.428;25.618;2023-12-04T10:20:13;6.44;71.14
74416;SHT31;62850;42.428;25.618;2023-12-04T10:22:59;6.50;72.32
74416;SHT31;62850;42.428;25.618;2023-12-04T10:25:28;6.60;71.48
74416;SHT31;62850;42.428;25.618;2023-12-04T10:28:06;6.64;72.09
74416;SHT31;62850;42.428;25.618;2023-12-04T10:30:32;6.77;71.80
74416;SHT31;62850;42.428;25.618;2023-12-04T10:33:00;6.83;71.40
74416;SHT31;62850;42.428;25.618;2023-12-04T10:35:30;6.87;70.34
74416;SHT31;62850;42.428;25.618;2023-12-04T10:38:02;6.92;70.04
74416;SHT31;62850;42.428;25.618;2023-12-04T10:40:33;6.90;70.68
74416;SHT31;62850;42.428;25.618;2023-12-04T10:43:18;6.94;70.59
74416;SHT31;62850;42.428;25.618;2023-12-04T10:45:46;6.91;70.19
74416;SHT31;62850;42.428;25.618;2023-12-04T10:48:13;6.91;69.78
74416;SHT31;62850;42.428;25.618;2023-12-04T10:50:49;7.04;69.70
74416;SHT31;62850;42.428;25.618;2023-12-04T10:53:16;7.07;69.96
74416;SHT31;62850;42.428;25.618;2023-12-04T10:55:43;7.02;70.41
74416;SHT31;62850;42.428;25.618;2023-12-04T10:58:11;6.97;70.41
74416;SHT31;62850;42.428;25.618;2023-12-04T11:00:44;7.02;69.88
74416;SHT31;62850;42.428;25.618;2023-12-04T11:03:13;6.97;71.10
74416;SHT31;62850;42.428;25.618;2023-12-04T11:05:40;6.92;70.50
74416;SHT31;62850;42.428;25.618;2023-12-04T11:08:08;6.91;70.32
74416;SHT31;62850;42.428;25.618;2023-12-04T11:10:41;6.84;70.08
74416;SHT31;62850;42.428;25.618;2023-12-04T11:13:17;6.67;68.80
74416;SHT31;62850;42.428;25.618;2023-12-04T11:15:47;6.73;69.76
74416;SHT31;62850;42.428;25.618;2023-12-04T11:18:16;6.79;69.87
74416;SHT31;62850;42.428;25.618;2023-12-04T11:20:50;6.58;71.57
74416;SHT31;62850;42.428;25.618;2023-12-04T11:23:17;6.57;69.34
74416;SHT31;62850;42.428;25.618;2023-12-04T11:25:44;6.64;68.65
74416;SHT31;62850;42.428;25.618;2023-12-04T11:28:10;6.61;69.61
74416;SHT31;62850;42.428;25.618;2023-12-04T11:30:36;6.60;69.00
74416;SHT31;62850;42.428;25.618;2023-12-04T11:33:02;6.56;67.45
74416;SHT31;62850;42.428;25.618;2023-12-04T11:35:28;6.54;66.75
74416;SHT31;62850;42.428;25.618;2023-12-04T11:37:53;6.63;67.44
74416;SHT31;62850;42.428;25.618;2023-12-04T11:40:19;6.51;68.18
74416;SHT31;62850;42.428;25.618;2023-12-04T11:42:45;6.57;69.40
74416;SHT31;62850;42.428;25.618;2023-12-04T11:45:18;6.69;69.46
74416;SHT31;62850;42.428;25.618;2023-12-04T11:47:51;6.74;69.92
74416;SHT31;62850;42.428;25.618;2023-12-04T11:50:20;6.71;69.38
74416;SHT31;62850;42.428;25.618;2023-12-04T11:52:47;6.79;69.11
74416;SHT31;62850;42.428;25.618;2023-12-04T11:55:16;6.80;68.44
74416;SHT31;62850;42.428;25.618;2023-12-04T11:57:42;6.74;68.98
74416;SHT31;62850;42.428;25.618;2023-12-04T12:02:33;6.84;68.01
74416;SHT31;62850;42.428;25.618;2023-12-04T12:04:58;6.70;67.81
74416;SHT31;62850;42.428;25.618;2023-12-04T12:07:24;6.73;68.24
74416;SHT31;62850;42.428;25.618;2023-12-04T12:09:50;6.70;67.96
74416;SHT31;62850;42.428;25.618;2023-12-04T12:12:15;6.85;67.73
74416;SHT31;62850;42.428;25.618;2023-12-04T12:14:41;6.87;67.84
74416;SHT31;62850;42.428;25.618;2023-12-04T12:17:06;6.97;67.79
74416;SHT31;62850;42.428;25.618;2023-12-04T12:19:32;7.07;67.78
74416;SHT31;62850;42.428;25.618;2023-12-04T12:21:57;7.00;66.70
74416;SHT31;62850;42.428;25.618;2023-12-04T12:24:26;6.97;67.00
74416;SHT31;62850;42.428;25.618;2023-12-04T12:26:51;6.95;67.16
74416;SHT31;62850;42.428;25.618;2023-12-04T12:29:17;6.94;67.64
74416;SHT31;62850;42.428;25.618;2023-12-04T12:31:43;6.94;67.54
74416;SHT31;62850;42.428;25.618;2023-12-04T12:34:08;6.87;68.42
74416;SHT31;62850;42.428;25.618;2023-12-04T12:36:34;6.79;67.50
74416;SHT31;62850;42.428;25.618;2023-12-04T12:39:00;6.83;67.25
74416;SHT31;62850;42.428;25.618;2023-12-04T12:41:29;6.88;68.28
74416;SHT31;62850;42.428;25.618;2023-12-04T12:43:54;6.92;68.66
74416;SHT31;62850;42.428;25.618;2023-12-04T12:46:20;6.92;68.44
74416;SHT31;62850;42.428;25.618;2023-12-04T12:48:47;6.94;67.44
74416;SHT31;62850;42.428;25.618;2023-12-04T12:51:13;6.91;67.49
74416;SHT31;62850;42.428;25.618;2023-12-04T12:53:38;6.90;68.51
74416;SHT31;62850;42.428;25.618;2023-12-04T12:56:04;6.90;68.66
74416;SHT31;62850;42.428;25.618;2023-12-04T12:58:31;6.81;69.55
74416;SHT31;62850;42.428;25.618;2023-12-04T13:00:56;6.83;69.79
74416;SHT31;62850;42.428;25.618;2023-12-04T13:03:22;6.91;69.47
74416;SHT31;62850;42.428;25.618;2023-12-04T13:05:47;6.97;69.55
74416;SHT31;62850;42.428;25.618;2023-12-04T13:08:13;7.08;69.39
74416;SHT31;62850;42.428;25.618;2023-12-04T13:10:40;7.15;69.22
74416;SHT31;62850;42.428;25.618;2023-12-04T13:13:10;7.22;69.12
74416;SHT31;62850;42.428;25.618;2023-12-04T13:15:36;7.19;68.77
74416;SHT31;62850;42.428;25.618;2023-12-04T13:18:02;7.08;69.10
74416;SHT31;62850;42.428;25.618;2023-12-04T13:20:27;7.09;68.89
74416;SHT31;62850;42.428;25.618;2023-12-04T13:22:53;7.02;69.32
74416;SHT31;62850;42.428;25.618;2023-12-04T13:25:19;6.98;69.34
74416;SHT31;62850;42.428;25.618;2023-12-04T13:27:46;7.00;68.91
74416;SHT31;62850;42.428;25.618;2023-12-04T13:30:11;7.05;68.99
74416;SHT31;62850;42.428;25.618;2023-12-04T13:32:37;7.04;69.00
74416;SHT31;62850;42.428;25.618;2023-12-04T13:35:04;6.91;68.83
74416;SHT31;62850;42.428;25.618;2023-12-04T13:37:33;6.92;69.16
74416;SHT31;62850;42.428;25.618;2023-12-04T13:40:02;6.88;69.83
74416;SHT31;62850;42.428;25.618;2023-12-04T13:42:37;6.84;69.76
74416;SHT31;62850;42.428;25.618;2023-12-04T13:45:22;6.83;69.98
74416;SHT31;62850;42.428;25.618;2023-12-04T13:47:48;6.73;71.19
74416;SHT31;62850;42.428;25.618;2023-12-04T13:50:14;6.73;70.00
74416;SHT31;62850;42.428;25.618;2023-12-04T13:52:40;6.67;70.15
74416;SHT31;62850;42.428;25.618;2023-12-04T13:55:08;6.74;70.66
74416;SHT31;62850;42.428;25.618;2023-12-04T13:57:44;6.71;71.10
74416;SHT31;62850;42.428;25.618;2023-12-04T14:00:21;6.80;71.17
74416;SHT31;62850;42.428;25.618;2023-12-04T14:02:47;6.77;71.10
74416;SHT31;62850;42.428;25.618;2023-12-04T14:05:12;6.73;71.55
74416;SHT31;62850;42.428;25.618;2023-12-04T14:07:41;6.66;72.39
74416;SHT31;62850;42.428;25.618;2023-12-04T14:10:09;6.63;72.20
74416;SHT31;62850;42.428;25.618;2023-12-04T14:12:34;6.61;71.33
74416;SHT31;62850;42.428;25.618;2023-12-04T14:15:02;6.50;72.22
74416;SHT31;62850;42.428;25.618;2023-12-04T14:17:28;6.51;72.34
74416;SHT31;62850;42.428;25.618;2023-12-04T14:19:54;6.58;72.09
74416;SHT31;62850;42.428;25.618;2023-12-04T14:22:19;6.54;71.92
74416;SHT31;62850;42.428;25.618;2023-12-04T14:24:45;6.49;72.52
74416;SHT31;62850;42.428;25.618;2023-12-04T14:27:10;6.49;71.92
74416;SHT31;62850;42.428;25.618;2023-12-04T14:29:36;6.42;72.55
74416;SHT31;62850;42.428;25.618;2023-12-04T14:32:01;6.46;72.54
74416;SHT31;62850;42.428;25.618;2023-12-04T14:34:27;6.40;73.12
74416;SHT31;62850;42.428;25.618;2023-12-04T14:36:53;6.32;73.67
74416;SHT31;62850;42.428;25.618;2023-12-04T14:39:19;6.36;73.69
74416;SHT31;62850;42.428;25.618;2023-12-04T14:41:44;6.40;73.93
74416;SHT31;62850;42.428;25.618;2023-12-04T14:44:10;6.43;73.88
74416;SHT31;62850;42.428;25.618;2023-12-04T14:46:36;6.40;73.51
74416;SHT31;62850;42.428;25.618;2023-12-04T14:49:01;6.36;73.93
74416;SHT31;62850;42.428;25.618;2023-12-04T14:51:27;6.22;74.15
74416;SHT31;62850;42.428;25.618;2023-12-04T14:53:53;6.19;74.71
74416;SHT31;62850;42.428;25.618;2023-12-04T14:56:37;6.15;74.99
74416;SHT31;62850;42.428;25.618;2023-12-04T14:59:11;6.16;75.41
74416;SHT31;62850;42.428;25.618;2023-12-04T15:02:06;6.21;75.31
74416;SHT31;62850;42.428;25.618;2023-12-04T15:04:50;6.26;74.60
74416;SHT31;62850;42.428;25.618;2023-12-04T15:07:18;6.26;74.77
74416;SHT31;62850;42.428;25.618;2023-12-04T15:10:03;6.29;74.34
74416;SHT31;62850;42.428;25.618;2023-12-04T15:12:55;6.15;74.39
74416;SHT31;62850;42.428;25.618;2023-12-04T15:15:26;6.11;74.54
74416;SHT31;62850;42.428;25.618;2023-12-04T15:18:05;6.06;75.13
74416;SHT31;62850;42.428;25.618;2023-12-04T15:20:49;6.13;74.60
74416;SHT31;62850;42.428;25.618;2023-12-04T15:23:15;6.09;74.70
74416;SHT31;62850;42.428;25.618;2023-12-04T15:25:42;6.06;74.49
74416;SHT31;62850;42.428;25.618;2023-12-04T15:28:07;6.09;74.46
74416;SHT31;62850;42.428;25.618;2023-12-04T15:30:35;6.06;74.52